EGQK - Kinloss
Distance from station: E 5mi, 14km
Updated: 08/19/2018 9:50pm
Mostly Cloudy
Mostly Cloudy
 Wind from W
Wind: W 3 mph , 6 km/h
Temperature: 54°F , 12°C
Dew Point: 50°F , 10°C
Humidity: 88%
Barometer: 30.03 inHg , 1017 hPa
Clouds: Mostly Cloudy
Visibility: 6 miles , 10 km
Cloud details: Mostly Cloudy 3200 ft
2018/08/20 04:50 EGQK 200450Z AUTO 28003KT 9999 BKN032/// 12/10 Q1017